createdAt,value
2022-10-27T00:00:44.888Z,15.63
2022-10-27T00:03:35.068Z,14.27
2022-10-27T00:06:24.450Z,13.55
2022-10-27T00:09:12.983Z,13.73
2022-10-27T00:12:03.249Z,13.13
2022-10-27T00:14:52.338Z,12.25
2022-10-27T00:17:42.344Z,13.43
2022-10-27T00:20:31.461Z,13.27
2022-10-27T00:23:20.824Z,12.10
2022-10-27T00:26:13.045Z,13.60
2022-10-27T00:29:02.222Z,13.70
2022-10-27T00:31:50.831Z,13.52
2022-10-27T00:34:40.175Z,12.63
2022-10-27T00:37:30.680Z,13.25
2022-10-27T00:40:20.363Z,13.02
2022-10-27T00:43:34.233Z,12.82
2022-10-27T00:46:46.969Z,11.68
2022-10-27T00:49:48.093Z,13.43
2022-10-27T00:52:48.992Z,11.93
2022-10-27T00:55:40.973Z,12.27
2022-10-27T00:58:30.337Z,10.32
2022-10-27T01:01:20.598Z,10.93
2022-10-27T01:04:10.090Z,9.75
2022-10-27T01:06:59.429Z,10.43
2022-10-27T01:09:49.466Z,11.05
2022-10-27T01:12:38.776Z,10.52
2022-10-27T01:15:49.525Z,10.88
2022-10-27T01:18:44.251Z,9.52
2022-10-27T01:22:10.261Z,8.07
2022-10-27T01:25:29.530Z,8.68
2022-10-27T01:28:51.919Z,8.50
2022-10-27T01:31:57.859Z,8.30
2022-10-27T01:34:47.854Z,7.90
2022-10-27T01:38:17.167Z,7.40
2022-10-27T01:41:34.262Z,7.90
2022-10-27T01:44:31.187Z,8.10
2022-10-27T01:47:23.193Z,6.93
2022-10-27T01:50:12.184Z,7.57
2022-10-27T01:53:02.521Z,7.97
2022-10-27T01:56:06.548Z,7.43
2022-10-27T01:59:17.680Z,6.97
2022-10-27T02:02:12.239Z,7.25
2022-10-27T02:05:42.146Z,7.60
2022-10-27T02:09:00.183Z,6.72
2022-10-27T02:11:53.497Z,6.95
2022-10-27T02:14:44.439Z,7.95
2022-10-27T02:17:40.127Z,7.38
2022-10-27T02:20:33.560Z,8.30
2022-10-27T02:23:23.784Z,7.70
2022-10-27T02:26:29.427Z,8.00
2022-10-27T02:29:24.682Z,8.07
2022-10-27T02:32:17.765Z,7.55
2022-10-27T02:35:07.495Z,7.88
2022-10-27T02:38:00.105Z,8.20
2022-10-27T02:40:49.415Z,7.03
2022-10-27T02:43:39.305Z,7.18
2022-10-27T02:46:28.197Z,6.65
2022-10-27T02:49:17.826Z,7.50
2022-10-27T02:52:07.177Z,6.18
2022-10-27T02:54:56.119Z,5.78
2022-10-27T02:57:49.638Z,6.43
2022-10-27T03:00:38.622Z,5.68
2022-10-27T03:03:27.716Z,5.20
2022-10-27T03:06:18.164Z,5.65
2022-10-27T03:09:07.913Z,6.53
2022-10-27T03:11:59.459Z,8.30
2022-10-27T03:14:48.901Z,6.45
2022-10-27T03:17:38.189Z,7.43
2022-10-27T03:20:27.090Z,7.22
2022-10-27T03:23:16.338Z,6.63
2022-10-27T03:26:05.753Z,6.00
2022-10-27T03:28:54.949Z,6.85
2022-10-27T03:31:44.193Z,6.97
2022-10-27T03:34:33.590Z,6.93
2022-10-27T03:37:23.475Z,7.43
2022-10-27T03:40:13.761Z,4.97
2022-10-27T03:43:05.526Z,5.03
2022-10-27T03:45:57.299Z,3.95
2022-10-27T03:48:51.697Z,5.00
2022-10-27T03:51:41.055Z,3.95
2022-10-27T03:54:37.051Z,3.83
2022-10-27T03:57:27.265Z,3.67
2022-10-27T04:00:16.683Z,3.80
2022-10-27T04:03:06.393Z,2.92
2022-10-27T04:05:56.549Z,2.80
2022-10-27T04:08:47.270Z,3.33
2022-10-27T04:11:36.423Z,3.00
2022-10-27T04:14:25.101Z,3.35
2022-10-27T04:17:13.925Z,2.97
2022-10-27T04:20:02.943Z,4.95
2022-10-27T04:22:52.381Z,3.22
2022-10-27T04:25:41.548Z,3.38
2022-10-27T04:28:30.939Z,2.92
2022-10-27T04:31:21.561Z,3.53
2022-10-27T04:34:13.292Z,2.95
2022-10-27T04:37:02.824Z,3.05
2022-10-27T04:39:51.759Z,2.72
2022-10-27T04:42:47.720Z,3.17
2022-10-27T04:45:39.719Z,2.97
2022-10-27T04:48:28.767Z,3.15
2022-10-27T04:51:22.304Z,3.35
2022-10-27T04:54:11.615Z,6.57
2022-10-27T04:57:01.372Z,5.72
2022-10-27T04:59:51.004Z,9.82
2022-10-27T05:02:39.857Z,8.13
2022-10-27T05:05:30.256Z,6.13
2022-10-27T05:08:19.901Z,3.17
2022-10-27T05:11:12.594Z,3.00
2022-10-27T05:14:04.568Z,4.55
2022-10-27T05:16:53.914Z,4.13
2022-10-27T05:19:46.033Z,2.83
2022-10-27T05:22:37.439Z,2.85
2022-10-27T05:25:26.297Z,2.75
2022-10-27T05:28:15.457Z,2.90
2022-10-27T05:31:04.646Z,2.90
2022-10-27T05:33:54.364Z,2.40
2022-10-27T05:36:43.955Z,2.25
2022-10-27T05:39:33.223Z,2.58
2022-10-27T05:42:22.133Z,2.33
2022-10-27T05:45:11.370Z,2.50
2022-10-27T05:48:05.750Z,2.88
2022-10-27T05:50:55.589Z,2.03
2022-10-27T05:53:44.325Z,1.90
2022-10-27T05:56:33.972Z,2.05
2022-10-27T05:59:22.868Z,2.40
2022-10-27T06:02:13.341Z,2.30
2022-10-27T06:05:02.780Z,4.70
2022-10-27T06:07:53.465Z,2.50
2022-10-27T06:10:43.357Z,2.67
2022-10-27T06:13:32.852Z,2.35
2022-10-27T06:16:23.044Z,2.53
2022-10-27T06:19:12.757Z,2.53
2022-10-27T06:22:01.732Z,1.83
2022-10-27T06:24:50.831Z,2.20
2022-10-27T06:27:39.544Z,2.78
2022-10-27T06:30:31.550Z,5.25
2022-10-27T06:33:21.795Z,3.42
2022-10-27T06:36:11.608Z,4.18
2022-10-27T06:39:00.970Z,2.42
2022-10-27T06:41:53.108Z,2.80
2022-10-27T06:44:44.816Z,3.15
2022-10-27T06:47:34.262Z,2.38
2022-10-27T06:50:23.480Z,6.22
2022-10-27T06:53:13.245Z,2.60
2022-10-27T06:56:02.031Z,3.38
2022-10-27T06:58:54.072Z,2.67
2022-10-27T07:01:46.423Z,2.00
2022-10-27T07:04:36.243Z,2.78
2022-10-27T07:07:28.518Z,3.08
2022-10-27T07:10:18.495Z,2.47
2022-10-27T07:13:07.730Z,3.05
2022-10-27T07:15:56.680Z,3.97
2022-10-27T07:18:50.536Z,2.58
2022-10-27T07:21:39.748Z,2.53
2022-10-27T07:24:32.129Z,2.53
2022-10-27T07:27:21.739Z,2.33
2022-10-27T07:30:11.306Z,2.08
2022-10-27T07:33:00.393Z,3.63
2022-10-27T07:35:54.173Z,3.65
2022-10-27T07:38:43.737Z,2.58
2022-10-27T07:41:33.069Z,7.57
2022-10-27T07:44:22.564Z,3.30
2022-10-27T07:47:11.631Z,4.40
2022-10-27T07:50:00.460Z,3.00
2022-10-27T07:52:51.603Z,2.70
2022-10-27T07:55:41.397Z,2.35
2022-10-27T07:58:31.470Z,2.15
2022-10-27T08:01:20.953Z,2.88
2022-10-27T08:04:12.985Z,2.47
2022-10-27T08:07:02.928Z,3.95
2022-10-27T08:09:52.114Z,3.10
2022-10-27T08:12:47.929Z,2.70
2022-10-27T08:15:38.521Z,4.32
2022-10-27T08:18:27.712Z,4.38
2022-10-27T08:21:16.339Z,4.28
2022-10-27T08:24:09.986Z,15.32
2022-10-27T08:26:59.446Z,4.95
2022-10-27T08:29:52.652Z,3.97
2022-10-27T08:32:43.317Z,5.00
2022-10-27T08:35:39.034Z,8.23
2022-10-27T08:38:31.171Z,7.00
2022-10-27T08:41:30.333Z,3.40
2022-10-27T08:44:49.730Z,7.00
2022-10-27T08:47:39.590Z,10.25
2022-10-27T08:50:30.726Z,12.05
2022-10-27T08:53:33.264Z,7.78
2022-10-27T08:56:23.137Z,6.25
2022-10-27T08:59:18.395Z,5.78
2022-10-27T09:02:29.169Z,4.85
2022-10-27T09:05:31.346Z,5.10
2022-10-27T09:08:28.119Z,16.40
2022-10-27T09:11:23.628Z,7.38
2022-10-27T09:14:41.976Z,5.80
2022-10-27T09:17:44.704Z,6.28
2022-10-27T09:20:52.585Z,48.53
2022-10-27T09:23:53.605Z,6.60
2022-10-27T09:26:43.968Z,19.00
2022-10-27T09:29:43.414Z,8.98
2022-10-27T09:32:35.109Z,7.63
2022-10-27T09:35:32.184Z,11.38
2022-10-27T09:38:24.573Z,9.75
2022-10-27T09:41:13.319Z,22.88
2022-10-27T09:44:03.125Z,14.75
2022-10-27T09:46:56.446Z,9.27
2022-10-27T09:49:49.246Z,10.45
2022-10-27T09:52:44.447Z,17.20
2022-10-27T09:55:54.669Z,16.23
2022-10-27T09:58:51.473Z,26.17
2022-10-27T10:01:50.920Z,10.68
2022-10-27T10:04:48.395Z,9.50
2022-10-27T10:07:42.007Z,10.25
2022-10-27T10:10:31.709Z,22.23
2022-10-27T10:13:21.686Z,20.63
2022-10-27T10:16:17.139Z,8.77
2022-10-27T10:19:21.536Z,8.90
2022-10-27T10:22:22.364Z,9.05
2022-10-27T10:25:25.728Z,10.10
2022-10-27T10:28:41.064Z,8.18
2022-10-27T10:31:32.212Z,9.38
2022-10-27T10:34:48.834Z,9.85
2022-10-27T10:37:55.969Z,7.97
2022-10-27T10:40:44.601Z,8.25
2022-10-27T10:43:33.822Z,7.28
2022-10-27T10:46:26.681Z,7.13
2022-10-27T10:49:43.248Z,7.45
2022-10-27T10:52:38.490Z,8.25
2022-10-27T10:55:36.442Z,8.52
2022-10-27T10:58:27.962Z,9.18
2022-10-27T11:01:16.828Z,7.32
2022-10-27T11:04:06.930Z,6.55
2022-10-27T11:07:02.137Z,7.35
2022-10-27T11:10:32.470Z,8.13
2022-10-27T11:13:23.419Z,8.15
2022-10-27T11:16:14.002Z,8.07
2022-10-27T11:19:08.602Z,9.10
2022-10-27T11:22:05.737Z,8.18
2022-10-27T11:25:07.169Z,7.65
2022-10-27T11:28:12.291Z,7.53
2022-10-27T11:31:37.218Z,9.52
2022-10-27T11:34:48.522Z,7.53
2022-10-27T11:37:46.564Z,7.72
2022-10-27T11:40:48.801Z,8.82
2022-10-27T11:43:50.574Z,16.30
2022-10-27T11:47:13.245Z,9.43
2022-10-27T11:50:40.694Z,11.15
2022-10-27T11:53:30.557Z,9.15
2022-10-27T11:56:44.343Z,8.13
2022-10-27T12:00:09.452Z,9.55
2022-10-27T12:03:20.450Z,7.88
2022-10-27T12:06:11.937Z,6.65
2022-10-27T12:09:28.966Z,7.30
2022-10-27T12:12:41.546Z,6.80
2022-10-27T12:15:57.048Z,6.35
2022-10-27T12:18:58.228Z,7.93
2022-10-27T12:22:09.018Z,6.55
2022-10-27T12:25:11.159Z,7.00
2022-10-27T12:28:03.386Z,6.32
2022-10-27T12:31:02.414Z,6.38
2022-10-27T12:33:57.036Z,6.82
2022-10-27T12:37:00.784Z,8.30
2022-10-27T12:39:58.888Z,6.57
2022-10-27T12:43:12.230Z,5.43
2022-10-27T12:46:30.251Z,6.18
2022-10-27T12:49:43.286Z,6.15
2022-10-27T12:52:36.108Z,5.88
2022-10-27T12:55:54.912Z,8.05
2022-10-27T12:58:53.276Z,8.30
2022-10-27T13:01:57.128Z,6.60
2022-10-27T13:05:19.571Z,6.40
2022-10-27T13:08:36.165Z,6.10
2022-10-27T13:11:38.482Z,5.88
2022-10-27T13:14:51.596Z,5.35
2022-10-27T13:17:56.940Z,5.28
2022-10-27T13:20:48.466Z,5.50
2022-10-27T13:23:55.321Z,5.68
2022-10-27T13:26:55.655Z,5.07
2022-10-27T13:30:32.279Z,5.38
2022-10-27T13:33:43.817Z,4.53
2022-10-27T13:36:32.824Z,4.93
2022-10-27T13:39:22.357Z,4.50
2022-10-27T13:42:18.306Z,5.07
2022-10-27T13:45:29.354Z,4.60
2022-10-27T13:48:18.362Z,4.10
2022-10-27T13:51:48.923Z,3.95
2022-10-27T13:54:55.278Z,4.22
2022-10-27T13:58:06.783Z,4.30
2022-10-27T14:01:21.822Z,3.90
2022-10-27T14:04:43.274Z,4.10
2022-10-27T14:07:39.708Z,3.88
2022-10-27T14:10:31.621Z,3.83
2022-10-27T14:13:37.418Z,4.13
2022-10-27T14:16:35.475Z,4.07
2022-10-27T14:19:31.442Z,3.92
2022-10-27T14:22:53.875Z,4.05
2022-10-27T14:25:47.873Z,4.00
2022-10-27T14:28:36.995Z,4.53
2022-10-27T14:31:26.500Z,3.80
2022-10-27T14:34:20.974Z,3.90
2022-10-27T14:37:22.005Z,4.25
2022-10-27T14:40:22.146Z,5.60
2022-10-27T14:43:23.042Z,4.55
2022-10-27T14:46:23.534Z,3.80
2022-10-27T14:49:47.251Z,4.50
2022-10-27T14:52:45.882Z,3.97
2022-10-27T14:55:40.161Z,3.75
2022-10-27T14:58:29.731Z,3.90
2022-10-27T15:01:27.628Z,3.70
2022-10-27T15:04:27.279Z,3.72
2022-10-27T15:07:21.108Z,4.15
2022-10-27T15:10:18.478Z,4.50
2022-10-27T15:13:12.389Z,4.80
2022-10-27T15:16:08.747Z,5.18
2022-10-27T15:19:02.203Z,5.20
2022-10-27T15:21:51.687Z,5.55
2022-10-27T15:24:40.455Z,6.97
2022-10-27T15:27:35.404Z,8.45
2022-10-27T15:30:24.163Z,9.30
2022-10-27T15:33:29.431Z,7.53
2022-10-27T15:36:18.497Z,8.02
2022-10-27T15:39:13.675Z,6.95
2022-10-27T15:42:05.638Z,6.60
2022-10-27T15:44:59.031Z,7.57
2022-10-27T15:47:52.188Z,8.35
2022-10-27T15:50:44.187Z,8.50
2022-10-27T15:53:46.262Z,8.85
2022-10-27T15:56:38.029Z,8.88
2022-10-27T15:59:30.049Z,9.70
2022-10-27T16:02:32.282Z,10.00
2022-10-27T16:05:34.162Z,9.00
2022-10-27T16:08:22.774Z,10.30
2022-10-27T16:11:14.474Z,10.75
2022-10-27T16:14:32.959Z,10.82
2022-10-27T16:17:41.268Z,9.63
2022-10-27T16:20:45.358Z,9.55
2022-10-27T16:23:38.884Z,10.57
2022-10-27T16:26:30.840Z,10.15
2022-10-27T16:29:22.965Z,10.65
2022-10-27T16:32:13.833Z,10.13
2022-10-27T16:35:06.071Z,10.85
2022-10-27T16:37:54.811Z,11.43
2022-10-27T16:40:47.669Z,12.02
2022-10-27T16:43:38.189Z,11.70
2022-10-27T16:46:28.573Z,12.85
2022-10-27T16:49:17.423Z,14.07
2022-10-27T16:52:09.869Z,12.00
2022-10-27T16:54:59.724Z,12.20
2022-10-27T16:57:51.555Z,11.80
2022-10-27T17:00:46.630Z,12.50
2022-10-27T17:03:40.695Z,12.07
2022-10-27T17:06:30.102Z,11.85
2022-10-27T17:09:27.326Z,11.90
2022-10-27T17:12:16.066Z,11.68
2022-10-27T17:15:25.809Z,12.57
2022-10-27T17:18:15.512Z,12.25
2022-10-27T17:21:07.734Z,12.10
2022-10-27T17:23:56.528Z,12.32
2022-10-27T17:26:45.600Z,12.73
2022-10-27T17:29:34.457Z,12.48
2022-10-27T17:32:24.406Z,12.52
2022-10-27T17:35:13.126Z,12.75
2022-10-27T17:38:02.878Z,13.95
2022-10-27T17:40:53.398Z,13.70
2022-10-27T17:43:42.615Z,14.68
2022-10-27T17:46:31.675Z,13.95
2022-10-27T17:49:30.593Z,16.67
2022-10-27T17:52:20.240Z,15.38
2022-10-27T17:55:09.932Z,14.48
2022-10-27T17:57:59.627Z,13.93
2022-10-27T18:00:48.810Z,13.88
2022-10-27T18:03:42.320Z,14.65
2022-10-27T18:06:33.096Z,13.77
2022-10-27T18:09:22.805Z,14.27
2022-10-27T18:12:12.402Z,13.38
2022-10-27T18:15:23.797Z,13.35
2022-10-27T18:18:11.212Z,14.70
2022-10-27T18:21:05.730Z,14.98
2022-10-27T18:23:59.970Z,15.77
2022-10-27T18:26:49.240Z,17.30
2022-10-27T18:29:39.767Z,17.38
2022-10-27T18:32:31.141Z,18.63
2022-10-27T18:35:22.337Z,17.27
2022-10-27T18:38:11.476Z,15.93
2022-10-27T18:41:04.431Z,15.75
2022-10-27T18:43:55.365Z,15.35
2022-10-27T18:46:45.111Z,17.17
2022-10-27T18:49:48.060Z,15.93
2022-10-27T18:52:38.544Z,16.75
2022-10-27T18:55:27.335Z,16.17
2022-10-27T18:58:16.343Z,15.65
2022-10-27T19:01:16.040Z,16.30
2022-10-27T19:04:09.815Z,14.40
2022-10-27T19:06:59.363Z,14.75
2022-10-27T19:09:49.177Z,14.63
2022-10-27T19:12:38.069Z,14.77
2022-10-27T19:15:27.802Z,15.73
2022-10-27T19:18:16.982Z,14.27
2022-10-27T19:24:03.299Z,15.13
2022-10-27T19:26:54.325Z,15.40
2022-10-27T19:29:43.110Z,15.70
2022-10-27T19:32:32.819Z,17.10
2022-10-27T19:35:22.146Z,15.52
2022-10-27T19:38:11.701Z,15.45
2022-10-27T19:41:01.345Z,16.02
2022-10-27T19:43:55.694Z,15.85
2022-10-27T19:46:44.845Z,15.35
2022-10-27T19:49:33.909Z,15.93
2022-10-27T19:52:23.190Z,14.73
2022-10-27T19:55:12.396Z,15.65
2022-10-27T19:58:01.718Z,15.13
2022-10-27T20:00:50.644Z,15.02
2022-10-27T20:03:41.356Z,15.27
2022-10-27T20:06:35.659Z,14.55
2022-10-27T20:09:24.992Z,14.48
2022-10-27T20:12:14.090Z,13.73
2022-10-27T20:15:03.088Z,14.70
2022-10-27T20:17:52.709Z,14.05
2022-10-27T20:20:42.271Z,15.18
2022-10-27T20:23:32.424Z,14.95
2022-10-27T20:26:29.033Z,13.70
2022-10-27T20:29:24.134Z,14.55
2022-10-27T20:32:16.305Z,15.65
2022-10-27T20:35:07.103Z,15.48
2022-10-27T20:37:57.416Z,16.00
2022-10-27T20:40:49.202Z,15.90
2022-10-27T20:43:38.542Z,16.67
2022-10-27T20:46:29.627Z,16.85
2022-10-27T20:49:18.469Z,17.05
2022-10-27T20:52:07.846Z,16.00
2022-10-27T20:54:56.897Z,15.98
2022-10-27T20:57:46.376Z,17.55
2022-10-27T21:00:35.328Z,16.48
2022-10-27T21:03:24.908Z,15.95
2022-10-27T21:06:14.103Z,16.25
2022-10-27T21:09:05.774Z,14.85
2022-10-27T21:11:54.790Z,15.40
2022-10-27T21:14:44.518Z,14.93
2022-10-27T21:17:33.974Z,14.95
2022-10-27T21:20:22.756Z,16.58
2022-10-27T21:23:14.655Z,14.85
2022-10-27T21:26:07.610Z,14.52
2022-10-27T21:28:57.901Z,14.88
2022-10-27T21:31:47.568Z,15.38
2022-10-27T21:34:36.984Z,15.35
2022-10-27T21:37:27.212Z,16.08
2022-10-27T21:40:18.751Z,16.58
2022-10-27T21:43:07.752Z,15.68
2022-10-27T21:45:57.855Z,15.05
2022-10-27T21:48:47.076Z,15.93
2022-10-27T21:51:36.310Z,14.50
2022-10-27T21:54:26.337Z,15.65
2022-10-27T21:57:15.328Z,15.40
2022-10-27T22:00:05.119Z,14.30
2022-10-27T22:02:53.371Z,14.95
2022-10-27T22:05:43.865Z,15.48
2022-10-27T22:08:32.857Z,15.98
2022-10-27T22:11:24.943Z,15.73
2022-10-27T22:14:14.995Z,16.23
2022-10-27T22:17:03.699Z,15.88
2022-10-27T22:19:54.215Z,16.95
2022-10-27T22:22:43.388Z,15.43
2022-10-27T22:25:33.624Z,15.43
2022-10-27T22:28:22.500Z,16.63
2022-10-27T22:31:13.737Z,17.83
2022-10-27T22:34:04.098Z,17.13
2022-10-27T22:36:53.799Z,17.88
2022-10-27T22:39:42.764Z,17.17
2022-10-27T22:42:32.249Z,17.55
2022-10-27T22:45:23.520Z,18.45
2022-10-27T22:48:12.352Z,15.75
2022-10-27T22:51:06.764Z,16.25
2022-10-27T22:53:56.874Z,16.77
2022-10-27T22:56:45.863Z,15.20
2022-10-27T22:59:35.222Z,14.68
2022-10-27T23:02:24.923Z,14.25
2022-10-27T23:05:17.368Z,14.60
2022-10-27T23:08:06.592Z,15.02
2022-10-27T23:11:04.712Z,16.92
2022-10-27T23:13:54.394Z,13.68
2022-10-27T23:16:44.918Z,15.07
2022-10-27T23:19:34.070Z,12.80
2022-10-27T23:22:26.180Z,14.52
2022-10-27T23:25:15.749Z,16.45
2022-10-27T23:28:06.157Z,15.15
2022-10-27T23:30:55.327Z,13.50
2022-10-27T23:33:47.606Z,11.90
2022-10-27T23:36:37.110Z,11.70
2022-10-27T23:39:27.791Z,10.95
2022-10-27T23:42:16.988Z,9.88
2022-10-27T23:45:06.274Z,10.80
2022-10-27T23:47:55.521Z,12.43
2022-10-27T23:50:45.294Z,11.57
2022-10-27T23:53:44.463Z,11.23
2022-10-27T23:56:33.189Z,10.73
2022-10-27T23:59:22.981Z,11.60
